sensor_id;sensor_type;location;lat;lon;timestamp;P1;durP1;ratioP1;P2;durP2;ratioP2
45909;SDS011;31622;55.416;37.840;2022-08-01T00:01:21;3.85;;;2.70;;
45909;SDS011;31622;55.416;37.840;2022-08-01T00:03:46;5.93;;;2.60;;
45909;SDS011;31622;55.416;37.840;2022-08-01T00:06:12;4.68;;;2.60;;
45909;SDS011;31622;55.416;37.840;2022-08-01T00:08:37;3.70;;;2.30;;
45909;SDS011;31622;55.416;37.840;2022-08-01T00:11:03;5.03;;;2.60;;
45909;SDS011;31622;55.416;37.840;2022-08-01T00:13:29;5.00;;;2.70;;
45909;SDS011;31622;55.416;37.840;2022-08-01T00:15:54;5.78;;;2.40;;
45909;SDS011;31622;55.416;37.840;2022-08-01T00:18:20;4.78;;;2.53;;
45909;SDS011;31622;55.416;37.840;2022-08-01T00:20:46;4.00;;;2.42;;
45909;SDS011;31622;55.416;37.840;2022-08-01T00:23:12;5.13;;;2.67;;
45909;SDS011;31622;55.416;37.840;2022-08-01T00:25:37;4.80;;;2.95;;
45909;SDS011;31622;55.416;37.840;2022-08-01T00:28:03;6.93;;;2.80;;
45909;SDS011;31622;55.416;37.840;2022-08-01T00:30:29;4.82;;;2.58;;
45909;SDS011;31622;55.416;37.840;2022-08-01T00:32:54;5.45;;;2.60;;
45909;SDS011;31622;55.416;37.840;2022-08-01T00:35:20;4.95;;;2.92;;
45909;SDS011;31622;55.416;37.840;2022-08-01T00:37:46;4.43;;;3.00;;
45909;SDS011;31622;55.416;37.840;2022-08-01T00:40:11;4.85;;;2.55;;
45909;SDS011;31622;55.416;37.840;2022-08-01T00:42:37;5.10;;;2.60;;
45909;SDS011;31622;55.416;37.840;2022-08-01T00:45:03;9.32;;;2.83;;
45909;SDS011;31622;55.416;37.840;2022-08-01T00:47:29;6.53;;;2.42;;
45909;SDS011;31622;55.416;37.840;2022-08-01T00:49:55;5.57;;;3.10;;
45909;SDS011;31622;55.416;37.840;2022-08-01T00:52:21;4.07;;;2.95;;
45909;SDS011;31622;55.416;37.840;2022-08-01T00:54:46;4.90;;;2.75;;
45909;SDS011;31622;55.416;37.840;2022-08-01T00:57:13;5.20;;;3.10;;
45909;SDS011;31622;55.416;37.840;2022-08-01T00:59:39;4.10;;;2.58;;
45909;SDS011;31622;55.416;37.840;2022-08-01T01:02:04;4.20;;;2.65;;
45909;SDS011;31622;55.416;37.840;2022-08-01T01:04:30;4.18;;;2.70;;
45909;SDS011;31622;55.416;37.840;2022-08-01T01:09:24;4.05;;;2.53;;
45909;SDS011;31622;55.416;37.840;2022-08-01T01:12:15;4.75;;;2.70;;
45909;SDS011;31622;55.416;37.840;2022-08-01T01:17:32;5.30;;;2.40;;
45909;SDS011;31622;55.416;37.840;2022-08-01T01:20:01;5.28;;;3.00;;
45909;SDS011;31622;55.416;37.840;2022-08-01T01:30:49;5.07;;;2.72;;
45909;SDS011;31622;55.416;37.840;2022-08-01T01:33:17;4.18;;;2.50;;
45909;SDS011;31622;55.416;37.840;2022-08-01T01:35:48;3.08;;;2.15;;
45909;SDS011;31622;55.416;37.840;2022-08-01T01:38:18;3.65;;;2.42;;
45909;SDS011;31622;55.416;37.840;2022-08-01T01:40:46;4.15;;;2.30;;
45909;SDS011;31622;55.416;37.840;2022-08-01T01:43:14;4.88;;;2.72;;
45909;SDS011;31622;55.416;37.840;2022-08-01T01:45:41;4.47;;;2.72;;
45909;SDS011;31622;55.416;37.840;2022-08-01T01:48:07;5.45;;;2.50;;
45909;SDS011;31622;55.416;37.840;2022-08-01T01:50:35;7.72;;;3.08;;
45909;SDS011;31622;55.416;37.840;2022-08-01T01:53:01;4.88;;;3.10;;
45909;SDS011;31622;55.416;37.840;2022-08-01T01:55:28;3.13;;;2.30;;
45909;SDS011;31622;55.416;37.840;2022-08-01T01:57:53;4.95;;;2.70;;
45909;SDS011;31622;55.416;37.840;2022-08-01T02:00:20;5.18;;;2.65;;
45909;SDS011;31622;55.416;37.840;2022-08-01T02:02:48;4.50;;;2.50;;
45909;SDS011;31622;55.416;37.840;2022-08-01T02:05:14;3.95;;;2.47;;
45909;SDS011;31622;55.416;37.840;2022-08-01T02:07:40;4.07;;;2.80;;
45909;SDS011;31622;55.416;37.840;2022-08-01T02:10:06;7.18;;;2.40;;
45909;SDS011;31622;55.416;37.840;2022-08-01T02:12:35;6.07;;;2.50;;
45909;SDS011;31622;55.416;37.840;2022-08-01T02:15:02;4.03;;;2.50;;
45909;SDS011;31622;55.416;37.840;2022-08-01T02:17:29;4.43;;;2.42;;
45909;SDS011;31622;55.416;37.840;2022-08-01T02:19:55;4.45;;;2.42;;
45909;SDS011;31622;55.416;37.840;2022-08-01T02:22:23;3.60;;;2.30;;
45909;SDS011;31622;55.416;37.840;2022-08-01T02:30:30;7.72;;;2.20;;
45909;SDS011;31622;55.416;37.840;2022-08-01T02:33:03;3.88;;;2.28;;
45909;SDS011;31622;55.416;37.840;2022-08-01T02:38:08;5.03;;;2.40;;
45909;SDS011;31622;55.416;37.840;2022-08-01T02:40:35;5.25;;;2.00;;
45909;SDS011;31622;55.416;37.840;2022-08-01T02:43:03;3.88;;;2.15;;
45909;SDS011;31622;55.416;37.840;2022-08-01T02:45:30;4.05;;;2.28;;
45909;SDS011;31622;55.416;37.840;2022-08-01T02:48:09;4.00;;;2.38;;
45909;SDS011;31622;55.416;37.840;2022-08-01T02:50:37;5.47;;;2.22;;
45909;SDS011;31622;55.416;37.840;2022-08-01T02:53:04;5.00;;;2.35;;
45909;SDS011;31622;55.416;37.840;2022-08-01T02:55:31;3.05;;;1.98;;
45909;SDS011;31622;55.416;37.840;2022-08-01T02:57:58;6.95;;;2.13;;
45909;SDS011;31622;55.416;37.840;2022-08-01T03:00:25;4.45;;;1.95;;
45909;SDS011;31622;55.416;37.840;2022-08-01T03:02:51;6.40;;;2.30;;
45909;SDS011;31622;55.416;37.840;2022-08-01T03:05:20;5.18;;;2.50;;
45909;SDS011;31622;55.416;37.840;2022-08-01T03:07:45;4.18;;;2.03;;
45909;SDS011;31622;55.416;37.840;2022-08-01T03:10:11;4.03;;;2.30;;
45909;SDS011;31622;55.416;37.840;2022-08-01T03:12:38;3.80;;;2.00;;
45909;SDS011;31622;55.416;37.840;2022-08-01T03:15:05;4.47;;;1.90;;
45909;SDS011;31622;55.416;37.840;2022-08-01T03:17:31;5.80;;;2.00;;
45909;SDS011;31622;55.416;37.840;2022-08-01T03:19:58;4.03;;;1.85;;
45909;SDS011;31622;55.416;37.840;2022-08-01T03:22:24;4.07;;;1.77;;
45909;SDS011;31622;55.416;37.840;2022-08-01T03:24:52;4.78;;;2.00;;
45909;SDS011;31622;55.416;37.840;2022-08-01T03:27:22;4.03;;;1.70;;
45909;SDS011;31622;55.416;37.840;2022-08-01T03:29:49;6.43;;;1.75;;
45909;SDS011;31622;55.416;37.840;2022-08-01T03:32:17;4.85;;;2.17;;
45909;SDS011;31622;55.416;37.840;2022-08-01T03:34:43;4.47;;;2.05;;
45909;SDS011;31622;55.416;37.840;2022-08-01T03:37:14;7.80;;;2.00;;
45909;SDS011;31622;55.416;37.840;2022-08-01T03:39:55;3.63;;;1.90;;
45909;SDS011;31622;55.416;37.840;2022-08-01T03:42:31;3.33;;;1.90;;
45909;SDS011;31622;55.416;37.840;2022-08-01T03:44:59;4.20;;;2.00;;
45909;SDS011;31622;55.416;37.840;2022-08-01T03:47:31;3.95;;;2.30;;
45909;SDS011;31622;55.416;37.840;2022-08-01T03:49:58;6.22;;;1.90;;
45909;SDS011;31622;55.416;37.840;2022-08-01T03:52:27;4.47;;;2.28;;
45909;SDS011;31622;55.416;37.840;2022-08-01T03:54:54;3.42;;;1.70;;
45909;SDS011;31622;55.416;37.840;2022-08-01T03:57:22;4.70;;;1.80;;
45909;SDS011;31622;55.416;37.840;2022-08-01T03:59:48;3.33;;;1.70;;
45909;SDS011;31622;55.416;37.840;2022-08-01T04:02:14;4.00;;;1.67;;
45909;SDS011;31622;55.416;37.840;2022-08-01T04:04:40;2.85;;;1.70;;
45909;SDS011;31622;55.416;37.840;2022-08-01T04:07:20;6.40;;;1.80;;
45909;SDS011;31622;55.416;37.840;2022-08-01T04:09:47;9.53;;;1.97;;
45909;SDS011;31622;55.416;37.840;2022-08-01T04:12:13;4.00;;;1.70;;
45909;SDS011;31622;55.416;37.840;2022-08-01T04:14:39;6.38;;;1.95;;
45909;SDS011;31622;55.416;37.840;2022-08-01T04:17:04;3.22;;;1.90;;
45909;SDS011;31622;55.416;37.840;2022-08-01T04:19:30;5.18;;;1.90;;
45909;SDS011;31622;55.416;37.840;2022-08-01T04:21:55;6.53;;;2.05;;
45909;SDS011;31622;55.416;37.840;2022-08-01T04:24:21;2.63;;;1.60;;
45909;SDS011;31622;55.416;37.840;2022-08-01T04:26:48;3.60;;;1.67;;
45909;SDS011;31622;55.416;37.840;2022-08-01T04:29:16;6.97;;;1.92;;
45909;SDS011;31622;55.416;37.840;2022-08-01T04:31:43;4.65;;;1.67;;
45909;SDS011;31622;55.416;37.840;2022-08-01T04:34:10;3.30;;;1.83;;
45909;SDS011;31622;55.416;37.840;2022-08-01T04:36:37;3.78;;;1.70;;
45909;SDS011;31622;55.416;37.840;2022-08-01T04:39:07;4.82;;;1.70;;
45909;SDS011;31622;55.416;37.840;2022-08-01T04:41:33;3.45;;;1.73;;
45909;SDS011;31622;55.416;37.840;2022-08-01T04:43:59;3.80;;;1.67;;
45909;SDS011;31622;55.416;37.840;2022-08-01T04:46:25;5.25;;;1.77;;
45909;SDS011;31622;55.416;37.840;2022-08-01T04:48:51;2.97;;;1.85;;
45909;SDS011;31622;55.416;37.840;2022-08-01T04:51:17;4.85;;;1.90;;
45909;SDS011;31622;55.416;37.840;2022-08-01T04:53:47;4.28;;;1.65;;
45909;SDS011;31622;55.416;37.840;2022-08-01T04:56:13;4.95;;;1.73;;
45909;SDS011;31622;55.416;37.840;2022-08-01T04:58:39;6.10;;;1.30;;
45909;SDS011;31622;55.416;37.840;2022-08-01T05:01:06;13.05;;;2.38;;
45909;SDS011;31622;55.416;37.840;2022-08-01T05:03:32;9.00;;;2.53;;
45909;SDS011;31622;55.416;37.840;2022-08-01T05:05:58;7.07;;;2.28;;
45909;SDS011;31622;55.416;37.840;2022-08-01T05:08:23;12.18;;;3.33;;
45909;SDS011;31622;55.416;37.840;2022-08-01T05:10:49;6.05;;;2.45;;
45909;SDS011;31622;55.416;37.840;2022-08-01T05:13:15;6.63;;;1.90;;
45909;SDS011;31622;55.416;37.840;2022-08-01T05:15:41;6.78;;;2.35;;
45909;SDS011;31622;55.416;37.840;2022-08-01T05:18:06;11.15;;;3.30;;
45909;SDS011;31622;55.416;37.840;2022-08-01T05:20:32;6.10;;;2.17;;
45909;SDS011;31622;55.416;37.840;2022-08-01T05:22:58;5.07;;;2.40;;
45909;SDS011;31622;55.416;37.840;2022-08-01T05:25:23;7.80;;;2.70;;
45909;SDS011;31622;55.416;37.840;2022-08-01T05:27:49;4.32;;;2.40;;
45909;SDS011;31622;55.416;37.840;2022-08-01T05:30:15;8.63;;;2.88;;
45909;SDS011;31622;55.416;37.840;2022-08-01T05:32:41;6.13;;;2.28;;
45909;SDS011;31622;55.416;37.840;2022-08-01T05:35:07;7.63;;;2.30;;
45909;SDS011;31622;55.416;37.840;2022-08-01T05:37:33;5.13;;;2.55;;
45909;SDS011;31622;55.416;37.840;2022-08-01T05:39:59;8.88;;;2.55;;
45909;SDS011;31622;55.416;37.840;2022-08-01T05:42:24;5.63;;;2.25;;
45909;SDS011;31622;55.416;37.840;2022-08-01T05:44:50;3.47;;;1.85;;
45909;SDS011;31622;55.416;37.840;2022-08-01T05:47:16;5.30;;;2.30;;
45909;SDS011;31622;55.416;37.840;2022-08-01T05:49:42;3.88;;;1.85;;
45909;SDS011;31622;55.416;37.840;2022-08-01T05:52:08;4.25;;;2.03;;
45909;SDS011;31622;55.416;37.840;2022-08-01T05:54:34;5.88;;;1.77;;
45909;SDS011;31622;55.416;37.840;2022-08-01T05:57:00;3.78;;;1.70;;
45909;SDS011;31622;55.416;37.840;2022-08-01T05:59:27;3.22;;;1.75;;
45909;SDS011;31622;55.416;37.840;2022-08-01T06:01:53;4.47;;;2.00;;
45909;SDS011;31622;55.416;37.840;2022-08-01T06:04:19;3.60;;;1.90;;
45909;SDS011;31622;55.416;37.840;2022-08-01T06:06:44;4.70;;;2.10;;
45909;SDS011;31622;55.416;37.840;2022-08-01T06:09:10;4.57;;;1.98;;
45909;SDS011;31622;55.416;37.840;2022-08-01T06:11:36;4.20;;;2.20;;
45909;SDS011;31622;55.416;37.840;2022-08-01T06:14:01;3.55;;;1.80;;
45909;SDS011;31622;55.416;37.840;2022-08-01T06:16:27;2.42;;;1.63;;
45909;SDS011;31622;55.416;37.840;2022-08-01T06:18:53;4.70;;;1.80;;
45909;SDS011;31622;55.416;37.840;2022-08-01T06:21:18;3.95;;;2.08;;
45909;SDS011;31622;55.416;37.840;2022-08-01T06:23:44;3.22;;;1.90;;
45909;SDS011;31622;55.416;37.840;2022-08-01T06:26:09;4.70;;;2.10;;
45909;SDS011;31622;55.416;37.840;2022-08-01T06:28:35;3.63;;;2.30;;
45909;SDS011;31622;55.416;37.840;2022-08-01T06:31:02;4.25;;;2.30;;
45909;SDS011;31622;55.416;37.840;2022-08-01T06:33:27;5.93;;;2.55;;
45909;SDS011;31622;55.416;37.840;2022-08-01T06:35:53;4.05;;;2.10;;
45909;SDS011;31622;55.416;37.840;2022-08-01T06:38:19;3.80;;;2.00;;
45909;SDS011;31622;55.416;37.840;2022-08-01T06:40:44;6.03;;;2.20;;
45909;SDS011;31622;55.416;37.840;2022-08-01T06:43:10;3.78;;;2.50;;
45909;SDS011;31622;55.416;37.840;2022-08-01T06:45:39;4.40;;;2.20;;
45909;SDS011;31622;55.416;37.840;2022-08-01T06:48:05;3.83;;;2.58;;
45909;SDS011;31622;55.416;37.840;2022-08-01T06:50:31;4.60;;;2.60;;
45909;SDS011;31622;55.416;37.840;2022-08-01T06:52:57;6.93;;;2.20;;
45909;SDS011;31622;55.416;37.840;2022-08-01T06:55:23;8.52;;;2.25;;
45909;SDS011;31622;55.416;37.840;2022-08-01T06:57:49;8.90;;;2.30;;
45909;SDS011;31622;55.416;37.840;2022-08-01T07:00:16;17.95;;;2.78;;
45909;SDS011;31622;55.416;37.840;2022-08-01T07:02:46;13.35;;;2.70;;
45909;SDS011;31622;55.416;37.840;2022-08-01T07:05:12;11.55;;;2.00;;
45909;SDS011;31622;55.416;37.840;2022-08-01T07:07:38;4.28;;;2.13;;
45909;SDS011;31622;55.416;37.840;2022-08-01T07:10:04;7.25;;;2.13;;
45909;SDS011;31622;55.416;37.840;2022-08-01T07:12:30;3.90;;;1.60;;
45909;SDS011;31622;55.416;37.840;2022-08-01T07:14:56;2.65;;;1.80;;
45909;SDS011;31622;55.416;37.840;2022-08-01T07:17:21;4.18;;;1.80;;
45909;SDS011;31622;55.416;37.840;2022-08-01T07:19:47;2.67;;;1.70;;
45909;SDS011;31622;55.416;37.840;2022-08-01T07:22:13;2.95;;;1.75;;
45909;SDS011;31622;55.416;37.840;2022-08-01T07:24:41;4.32;;;1.55;;
45909;SDS011;31622;55.416;37.840;2022-08-01T07:27:07;10.75;;;3.03;;
45909;SDS011;31622;55.416;37.840;2022-08-01T07:29:33;9.43;;;3.40;;
45909;SDS011;31622;55.416;37.840;2022-08-01T07:31:59;14.25;;;4.43;;
45909;SDS011;31622;55.416;37.840;2022-08-01T07:34:24;10.43;;;3.40;;
45909;SDS011;31622;55.416;37.840;2022-08-01T07:36:51;17.67;;;5.15;;
45909;SDS011;31622;55.416;37.840;2022-08-01T07:39:17;16.27;;;4.75;;
45909;SDS011;31622;55.416;37.840;2022-08-01T07:41:43;15.63;;;5.20;;
45909;SDS011;31622;55.416;37.840;2022-08-01T07:44:08;9.55;;;3.25;;
45909;SDS011;31622;55.416;37.840;2022-08-01T07:46:34;13.38;;;3.65;;
45909;SDS011;31622;55.416;37.840;2022-08-01T07:49:00;10.23;;;3.80;;
45909;SDS011;31622;55.416;37.840;2022-08-01T07:51:25;14.15;;;3.70;;
45909;SDS011;31622;55.416;37.840;2022-08-01T07:53:51;9.55;;;3.00;;
45909;SDS011;31622;55.416;37.840;2022-08-01T07:56:16;8.88;;;2.85;;
45909;SDS011;31622;55.416;37.840;2022-08-01T07:58:42;8.38;;;3.10;;
45909;SDS011;31622;55.416;37.840;2022-08-01T08:01:08;8.35;;;2.70;;
45909;SDS011;31622;55.416;37.840;2022-08-01T08:03:34;5.03;;;2.22;;
45909;SDS011;31622;55.416;37.840;2022-08-01T08:05:59;7.53;;;2.22;;
45909;SDS011;31622;55.416;37.840;2022-08-01T08:08:25;3.47;;;2.28;;
45909;SDS011;31622;55.416;37.840;2022-08-01T08:10:52;5.40;;;2.25;;
45909;SDS011;31622;55.416;37.840;2022-08-01T08:13:18;4.15;;;1.90;;
45909;SDS011;31622;55.416;37.840;2022-08-01T08:15:43;3.50;;;1.98;;
45909;SDS011;31622;55.416;37.840;2022-08-01T08:18:09;3.80;;;2.70;;
45909;SDS011;31622;55.416;37.840;2022-08-01T08:20:35;3.90;;;2.10;;
45909;SDS011;31622;55.416;37.840;2022-08-01T08:23:00;5.45;;;1.90;;
45909;SDS011;31622;55.416;37.840;2022-08-01T08:25:26;3.00;;;1.98;;
45909;SDS011;31622;55.416;37.840;2022-08-01T08:27:53;2.85;;;1.85;;
45909;SDS011;31622;55.416;37.840;2022-08-01T08:30:19;4.57;;;2.00;;
45909;SDS011;31622;55.416;37.840;2022-08-01T08:32:45;3.85;;;1.80;;
45909;SDS011;31622;55.416;37.840;2022-08-01T08:35:10;3.55;;;1.52;;
45909;SDS011;31622;55.416;37.840;2022-08-01T08:37:37;3.00;;;1.67;;
45909;SDS011;31622;55.416;37.840;2022-08-01T08:40:03;4.68;;;2.00;;
45909;SDS011;31622;55.416;37.840;2022-08-01T08:42:30;3.70;;;1.42;;
45909;SDS011;31622;55.416;37.840;2022-08-01T08:44:55;3.90;;;1.60;;
45909;SDS011;31622;55.416;37.840;2022-08-01T08:47:21;6.00;;;1.55;;
45909;SDS011;31622;55.416;37.840;2022-08-01T08:49:49;4.07;;;1.33;;
45909;SDS011;31622;55.416;37.840;2022-08-01T08:52:17;2.75;;;1.52;;
45909;SDS011;31622;55.416;37.840;2022-08-01T08:54:44;2.08;;;1.30;;
45909;SDS011;31622;55.416;37.840;2022-08-01T08:57:10;3.20;;;1.23;;
45909;SDS011;31622;55.416;37.840;2022-08-01T08:59:38;5.25;;;1.50;;
45909;SDS011;31622;55.416;37.840;2022-08-01T09:02:05;2.95;;;1.35;;
45909;SDS011;31622;55.416;37.840;2022-08-01T09:04:30;3.95;;;1.70;;
45909;SDS011;31622;55.416;37.840;2022-08-01T09:06:56;3.90;;;1.60;;
45909;SDS011;31622;55.416;37.840;2022-08-01T09:09:23;5.07;;;1.60;;
45909;SDS011;31622;55.416;37.840;2022-08-01T09:11:48;3.45;;;1.33;;
45909;SDS011;31622;55.416;37.840;2022-08-01T09:14:15;5.32;;;1.88;;
45909;SDS011;31622;55.416;37.840;2022-08-01T09:16:58;5.07;;;1.70;;
45909;SDS011;31622;55.416;37.840;2022-08-01T09:19:41;7.85;;;1.67;;
45909;SDS011;31622;55.416;37.840;2022-08-01T09:22:10;3.35;;;2.08;;
45909;SDS011;31622;55.416;37.840;2022-08-01T09:24:37;6.35;;;1.60;;
45909;SDS011;31622;55.416;37.840;2022-08-01T09:27:17;3.13;;;1.27;;
45909;SDS011;31622;55.416;37.840;2022-08-01T09:29:44;5.38;;;1.58;;
45909;SDS011;31622;55.416;37.840;2022-08-01T09:32:10;2.45;;;1.50;;
45909;SDS011;31622;55.416;37.840;2022-08-01T09:34:36;2.67;;;1.77;;
45909;SDS011;31622;55.416;37.840;2022-08-01T09:37:02;3.55;;;1.60;;
45909;SDS011;31622;55.416;37.840;2022-08-01T09:39:32;2.40;;;1.60;;
45909;SDS011;31622;55.416;37.840;2022-08-01T09:42:03;2.90;;;1.65;;
45909;SDS011;31622;55.416;37.840;2022-08-01T09:44:45;2.85;;;1.70;;
45909;SDS011;31622;55.416;37.840;2022-08-01T09:47:11;3.42;;;1.48;;
45909;SDS011;31622;55.416;37.840;2022-08-01T09:49:38;3.65;;;1.60;;
45909;SDS011;31622;55.416;37.840;2022-08-01T09:54:40;2.40;;;1.38;;
45909;SDS011;31622;55.416;37.840;2022-08-01T09:57:08;2.13;;;1.10;;
45909;SDS011;31622;55.416;37.840;2022-08-01T09:59:43;6.65;;;2.10;;
45909;SDS011;31622;55.416;37.840;2022-08-01T10:02:14;5.32;;;1.55;;
45909;SDS011;31622;55.416;37.840;2022-08-01T10:04:51;2.47;;;1.70;;
45909;SDS011;31622;55.416;37.840;2022-08-01T10:07:17;4.53;;;1.58;;
45909;SDS011;31622;55.416;37.840;2022-08-01T10:09:44;4.03;;;2.28;;
45909;SDS011;31622;55.416;37.840;2022-08-01T10:12:12;4.43;;;1.80;;
45909;SDS011;31622;55.416;37.840;2022-08-01T10:14:40;2.00;;;1.45;;
45909;SDS011;31622;55.416;37.840;2022-08-01T10:17:06;2.95;;;1.40;;
45909;SDS011;31622;55.416;37.840;2022-08-01T10:19:34;3.42;;;1.65;;
45909;SDS011;31622;55.416;37.840;2022-08-01T10:22:00;4.22;;;1.83;;
45909;SDS011;31622;55.416;37.840;2022-08-01T10:24:27;2.75;;;1.70;;
45909;SDS011;31622;55.416;37.840;2022-08-01T10:26:58;3.53;;;1.77;;
45909;SDS011;31622;55.416;37.840;2022-08-01T10:29:27;2.22;;;1.33;;
45909;SDS011;31622;55.416;37.840;2022-08-01T10:31:54;2.63;;;1.50;;
45909;SDS011;31622;55.416;37.840;2022-08-01T10:34:20;3.03;;;1.40;;
45909;SDS011;31622;55.416;37.840;2022-08-01T10:36:46;3.42;;;1.60;;
45909;SDS011;31622;55.416;37.840;2022-08-01T10:39:11;2.97;;;1.50;;
45909;SDS011;31622;55.416;37.840;2022-08-01T10:41:38;3.40;;;1.77;;
45909;SDS011;31622;55.416;37.840;2022-08-01T10:44:06;3.58;;;1.45;;
45909;SDS011;31622;55.416;37.840;2022-08-01T10:46:32;3.20;;;1.25;;
45909;SDS011;31622;55.416;37.840;2022-08-01T10:49:04;2.00;;;1.30;;
45909;SDS011;31622;55.416;37.840;2022-08-01T10:51:36;2.63;;;1.60;;
45909;SDS011;31622;55.416;37.840;2022-08-01T10:54:05;3.17;;;1.77;;
45909;SDS011;31622;55.416;37.840;2022-08-01T10:56:45;1.92;;;1.20;;
45909;SDS011;31622;55.416;37.840;2022-08-01T10:59:20;2.97;;;1.30;;
45909;SDS011;31622;55.416;37.840;2022-08-01T11:02:00;2.85;;;1.35;;
45909;SDS011;31622;55.416;37.840;2022-08-01T11:07:06;5.85;;;1.30;;
45909;SDS011;31622;55.416;37.840;2022-08-01T11:09:39;2.08;;;1.30;;
45909;SDS011;31622;55.416;37.840;2022-08-01T11:12:13;3.05;;;1.20;;
45909;SDS011;31622;55.416;37.840;2022-08-01T11:17:33;5.20;;;1.40;;
45909;SDS011;31622;55.416;37.840;2022-08-01T11:20:15;2.95;;;1.38;;
45909;SDS011;31622;55.416;37.840;2022-08-01T11:25:26;3.10;;;1.50;;
45909;SDS011;31622;55.416;37.840;2022-08-01T11:30:41;2.65;;;1.40;;
45909;SDS011;31622;55.416;37.840;2022-08-01T11:33:11;2.88;;;1.10;;
45909;SDS011;31622;55.416;37.840;2022-08-01T11:35:38;2.00;;;1.23;;
45909;SDS011;31622;55.416;37.840;2022-08-01T11:38:39;2.78;;;1.50;;
45909;SDS011;31622;55.416;37.840;2022-08-01T11:54:42;2.45;;;1.50;;
45909;SDS011;31622;55.416;37.840;2022-08-01T11:57:24;2.22;;;1.30;;
45909;SDS011;31622;55.416;37.840;2022-08-01T11:59:52;1.60;;;1.10;;
45909;SDS011;31622;55.416;37.840;2022-08-01T12:02:20;3.05;;;1.35;;
45909;SDS011;31622;55.416;37.840;2022-08-01T12:07:15;2.72;;;1.50;;
45909;SDS011;31622;55.416;37.840;2022-08-01T12:09:41;2.75;;;1.20;;
45909;SDS011;31622;55.416;37.840;2022-08-01T12:12:07;19.77;;;3.85;;
45909;SDS011;31622;55.416;37.840;2022-08-01T12:14:32;5.20;;;1.50;;
45909;SDS011;31622;55.416;37.840;2022-08-01T12:16:58;2.65;;;1.40;;
45909;SDS011;31622;55.416;37.840;2022-08-01T12:19:24;4.47;;;1.50;;
45909;SDS011;31622;55.416;37.840;2022-08-01T12:24:34;6.07;;;1.45;;
45909;SDS011;31622;55.416;37.840;2022-08-01T12:27:00;6.15;;;1.40;;
45909;SDS011;31622;55.416;37.840;2022-08-01T12:29:33;2.80;;;1.63;;
45909;SDS011;31622;55.416;37.840;2022-08-01T12:31:59;2.80;;;1.50;;
45909;SDS011;31622;55.416;37.840;2022-08-01T12:34:26;3.33;;;1.52;;
45909;SDS011;31622;55.416;37.840;2022-08-01T12:36:56;3.03;;;1.38;;
45909;SDS011;31622;55.416;37.840;2022-08-01T12:39:28;2.50;;;1.65;;
45909;SDS011;31622;55.416;37.840;2022-08-01T12:41:57;3.40;;;1.48;;
45909;SDS011;31622;55.416;37.840;2022-08-01T12:44:23;4.25;;;1.48;;
45909;SDS011;31622;55.416;37.840;2022-08-01T12:46:49;3.70;;;1.58;;
45909;SDS011;31622;55.416;37.840;2022-08-01T12:49:15;6.90;;;1.40;;
45909;SDS011;31622;55.416;37.840;2022-08-01T12:51:40;4.50;;;1.40;;
45909;SDS011;31622;55.416;37.840;2022-08-01T12:54:06;2.80;;;1.55;;
45909;SDS011;31622;55.416;37.840;2022-08-01T12:56:35;3.10;;;1.40;;
45909;SDS011;31622;55.416;37.840;2022-08-01T12:59:01;2.17;;;1.60;;
45909;SDS011;31622;55.416;37.840;2022-08-01T13:01:27;2.67;;;1.58;;
45909;SDS011;31622;55.416;37.840;2022-08-01T13:03:57;6.47;;;1.40;;
45909;SDS011;31622;55.416;37.840;2022-08-01T13:06:24;2.38;;;1.50;;
45909;SDS011;31622;55.416;37.840;2022-08-01T13:08:54;4.68;;;1.50;;
45909;SDS011;31622;55.416;37.840;2022-08-01T13:11:20;2.30;;;1.45;;
45909;SDS011;31622;55.416;37.840;2022-08-01T13:13:47;2.22;;;1.42;;
45909;SDS011;31622;55.416;37.840;2022-08-01T13:16:14;2.42;;;1.40;;
45909;SDS011;31622;55.416;37.840;2022-08-01T13:18:41;3.55;;;1.60;;
45909;SDS011;31622;55.416;37.840;2022-08-01T13:21:21;3.60;;;1.40;;
45909;SDS011;31622;55.416;37.840;2022-08-01T13:26:39;2.40;;;1.25;;
45909;SDS011;31622;55.416;37.840;2022-08-01T13:29:13;3.45;;;1.40;;
45909;SDS011;31622;55.416;37.840;2022-08-01T13:31:40;2.50;;;1.50;;
45909;SDS011;31622;55.416;37.840;2022-08-01T13:34:06;1.90;;;1.42;;
45909;SDS011;31622;55.416;37.840;2022-08-01T13:36:33;2.55;;;1.45;;
45909;SDS011;31622;55.416;37.840;2022-08-01T13:38:59;2.10;;;1.30;;
45909;SDS011;31622;55.416;37.840;2022-08-01T13:41:43;1.63;;;1.15;;
45909;SDS011;31622;55.416;37.840;2022-08-01T13:44:09;3.17;;;1.52;;
45909;SDS011;31622;55.416;37.840;2022-08-01T13:46:38;3.63;;;1.60;;
45909;SDS011;31622;55.416;37.840;2022-08-01T13:49:05;2.95;;;1.52;;
45909;SDS011;31622;55.416;37.840;2022-08-01T13:51:32;9.50;;;1.60;;
45909;SDS011;31622;55.416;37.840;2022-08-01T13:53:58;5.93;;;1.40;;
45909;SDS011;31622;55.416;37.840;2022-08-01T13:56:24;15.77;;;2.53;;
45909;SDS011;31622;55.416;37.840;2022-08-01T13:58:50;7.53;;;2.30;;
45909;SDS011;31622;55.416;37.840;2022-08-01T14:01:16;4.38;;;1.65;;
45909;SDS011;31622;55.416;37.840;2022-08-01T14:03:42;2.55;;;1.45;;
45909;SDS011;31622;55.416;37.840;2022-08-01T14:06:07;4.13;;;1.77;;
45909;SDS011;31622;55.416;37.840;2022-08-01T14:08:33;3.40;;;1.85;;
45909;SDS011;31622;55.416;37.840;2022-08-01T14:10:59;2.65;;;1.52;;
45909;SDS011;31622;55.416;37.840;2022-08-01T14:13:27;3.38;;;1.50;;
45909;SDS011;31622;55.416;37.840;2022-08-01T14:15:53;2.40;;;1.63;;
45909;SDS011;31622;55.416;37.840;2022-08-01T14:18:18;2.90;;;1.35;;
45909;SDS011;31622;55.416;37.840;2022-08-01T14:20:44;7.28;;;1.60;;
45909;SDS011;31622;55.416;37.840;2022-08-01T14:23:10;2.72;;;1.60;;
45909;SDS011;31622;55.416;37.840;2022-08-01T14:25:36;2.88;;;1.85;;
45909;SDS011;31622;55.416;37.840;2022-08-01T14:28:03;3.72;;;1.73;;
45909;SDS011;31622;55.416;37.840;2022-08-01T14:30:28;3.00;;;1.45;;
45909;SDS011;31622;55.416;37.840;2022-08-01T14:32:54;1.85;;;1.38;;
45909;SDS011;31622;55.416;37.840;2022-08-01T14:35:20;4.22;;;1.73;;
45909;SDS011;31622;55.416;37.840;2022-08-01T14:37:46;2.45;;;1.42;;
45909;SDS011;31622;55.416;37.840;2022-08-01T14:40:11;3.17;;;1.38;;
45909;SDS011;31622;55.416;37.840;2022-08-01T14:42:38;5.10;;;1.40;;
45909;SDS011;31622;55.416;37.840;2022-08-01T14:45:04;3.38;;;1.30;;
45909;SDS011;31622;55.416;37.840;2022-08-01T14:47:34;2.50;;;1.50;;
45909;SDS011;31622;55.416;37.840;2022-08-01T14:50:01;2.75;;;1.40;;
45909;SDS011;31622;55.416;37.840;2022-08-01T14:52:28;3.45;;;1.20;;
45909;SDS011;31622;55.416;37.840;2022-08-01T14:54:53;3.65;;;1.50;;
45909;SDS011;31622;55.416;37.840;2022-08-01T14:57:19;3.92;;;1.45;;
45909;SDS011;31622;55.416;37.840;2022-08-01T14:59:45;2.50;;;1.38;;
45909;SDS011;31622;55.416;37.840;2022-08-01T15:02:11;2.10;;;1.55;;
45909;SDS011;31622;55.416;37.840;2022-08-01T15:04:38;3.13;;;1.58;;
45909;SDS011;31622;55.416;37.840;2022-08-01T15:07:04;2.92;;;1.40;;
45909;SDS011;31622;55.416;37.840;2022-08-01T15:09:29;5.85;;;2.30;;
45909;SDS011;31622;55.416;37.840;2022-08-01T15:11:55;2.83;;;1.35;;
45909;SDS011;31622;55.416;37.840;2022-08-01T15:14:21;2.33;;;1.50;;
45909;SDS011;31622;55.416;37.840;2022-08-01T15:17:05;3.17;;;1.75;;
45909;SDS011;31622;55.416;37.840;2022-08-01T15:19:32;2.15;;;1.23;;
45909;SDS011;31622;55.416;37.840;2022-08-01T15:21:58;2.60;;;1.67;;
45909;SDS011;31622;55.416;37.840;2022-08-01T15:24:24;2.08;;;1.40;;
45909;SDS011;31622;55.416;37.840;2022-08-01T15:26:50;5.50;;;1.50;;
45909;SDS011;31622;55.416;37.840;2022-08-01T15:29:15;2.38;;;1.50;;
45909;SDS011;31622;55.416;37.840;2022-08-01T15:31:41;3.38;;;1.38;;